Time;durP1;ratioP1;P1;durP2;ratioP2;P2;SDS_P1;SDS_P2;PMS_P1;PMS_P2;Temp;Humidity;BMP_temperature;BMP_pressure;BME280_temperature;BME280_humidity;BME280_pressure;Samples;Min_cycle;Max_cycle;Signal;HPM_P1;HPM_P2
2022/05/19 00:01:26;;;;;;;9.73;8.15;;;;;;;;;;4938648;28;20118;-67
2022/05/19 00:03:53;;;;;;;9.25;7.15;;;;;;;;;;4921475;29;20078;-67
2022/05/19 00:06:21;;;;;;;14.90;7.53;;;;;;;;;;4938220;28;20051;-67
2022/05/19 00:08:48;;;;;;;67.43;8.63;;;;;;;;;;4924746;28;20135;-67
2022/05/19 00:11:16;;;;;;;17.83;6.63;;;;;;;;;;4922053;29;20043;-67
2022/05/19 00:13:45;;;;;;;15.90;5.78;;;;;;;;;;4946739;28;20364;-67
2022/05/19 00:16:13;;;;;;;7.90;5.95;;;;;;;;;;4924024;29;20051;-67
2022/05/19 00:18:40;;;;;;;7.97;5.70;;;;;;;;;;4925399;29;20105;-67
2022/05/19 00:21:07;;;;;;;7.32;4.80;;;;;;;;;;4925679;29;20513;-67
2022/05/19 00:23:35;;;;;;;6.63;5.22;;;;;;;;;;4940486;28;20106;-67
2022/05/19 00:26:02;;;;;;;7.78;5.28;;;;;;;;;;4922203;29;20055;-67
2022/05/19 00:28:29;;;;;;;9.45;5.22;;;;;;;;;;4936473;28;20055;-67
2022/05/19 00:30:58;;;;;;;12.48;6.55;;;;;;;;;;4920428;28;20481;-67
2022/05/19 00:33:25;;;;;;;10.00;5.93;;;;;;;;;;4943201;28;20110;-67
2022/05/19 00:35:52;;;;;;;11.02;6.53;;;;;;;;;;4922294;29;20115;-67
2022/05/19 00:38:19;;;;;;;10.32;6.95;;;;;;;;;;4934283;28;20387;-67
2022/05/19 00:40:48;;;;;;;9.75;7.47;;;;;;;;;;4942876;28;20556;-67
2022/05/19 00:43:16;;;;;;;12.38;7.65;;;;;;;;;;4921853;28;20055;-67
2022/05/19 00:45:47;;;;;;;13.70;7.95;;;;;;;;;;4940447;28;20063;-67
2022/05/19 00:48:19;;;;;;;12.32;7.90;;;;;;;;;;4940304;28;20051;-67
2022/05/19 00:50:47;;;;;;;17.77;10.90;;;;;;;;;;4922261;28;20059;-67
2022/05/19 00:53:17;;;;;;;17.33;10.60;;;;;;;;;;4948289;28;20054;-67
2022/05/19 00:55:45;;;;;;;13.10;9.63;;;;;;;;;;4921642;29;20082;-66
2022/05/19 00:58:15;;;;;;;15.95;10.20;;;;;;;;;;4945907;28;20050;-66
2022/05/19 01:00:43;;;;;;;11.23;7.93;;;;;;;;;;4939147;28;20047;-66
2022/05/19 01:03:10;;;;;;;14.23;8.80;;;;;;;;;;4939929;28;20130;-66
2022/05/19 01:05:40;;;;;;;11.23;8.25;;;;;;;;;;4926489;29;20188;-66
2022/05/19 01:08:12;;;;;;;13.60;9.27;;;;;;;;;;4939279;28;20526;-66
2022/05/19 01:10:40;;;;;;;13.07;8.20;;;;;;;;;;4924899;29;20055;-66
2022/05/19 01:13:08;;;;;;;14.25;9.32;;;;;;;;;;4942499;28;20147;-66
2022/05/19 01:15:36;;;;;;;18.20;11.52;;;;;;;;;;4936119;28;20056;-66
2022/05/19 01:18:04;;;;;;;14.88;11.60;;;;;;;;;;4941929;28;20051;-66
2022/05/19 01:20:31;;;;;;;15.52;11.23;;;;;;;;;;4929980;29;20059;-66
2022/05/19 01:23:01;;;;;;;15.93;11.75;;;;;;;;;;4925297;29;20107;-66
2022/05/19 01:25:36;;;;;;;15.05;10.88;;;;;;;;;;4940193;28;20054;-66
2022/05/19 01:28:04;;;;;;;16.75;11.45;;;;;;;;;;4922675;29;20054;-66
2022/05/19 01:30:32;;;;;;;14.13;10.10;;;;;;;;;;4923473;29;20106;-66
2022/05/19 01:32:59;;;;;;;14.00;10.80;;;;;;;;;;4942926;28;20055;-66
2022/05/19 01:35:32;;;;;;;17.25;11.73;;;;;;;;;;4944665;28;20052;-67
2022/05/19 01:37:59;;;;;;;16.73;11.73;;;;;;;;;;4944199;28;20585;-67
2022/05/19 01:40:29;;;;;;;16.88;12.18;;;;;;;;;;4928525;29;20059;-67
2022/05/19 01:43:01;;;;;;;17.05;12.15;;;;;;;;;;4925571;29;20103;-67
2022/05/19 01:45:41;;;;;;;16.23;12.37;;;;;;;;;;4938320;28;20051;-67
2022/05/19 01:48:12;;;;;;;18.02;12.10;;;;;;;;;;4940167;28;20398;-67
2022/05/19 01:50:44;;;;;;;18.60;12.20;;;;;;;;;;4941296;28;20090;-67
2022/05/19 01:53:15;;;;;;;17.02;11.73;;;;;;;;;;4923683;29;20055;-67
2022/05/19 01:55:46;;;;;;;21.33;12.55;;;;;;;;;;4939366;28;20110;-66
2022/05/19 01:58:16;;;;;;;18.83;12.93;;;;;;;;;;4939256;28;20427;-66
2022/05/19 02:00:45;;;;;;;18.35;12.82;;;;;;;;;;4926602;29;20051;-66
2022/05/19 02:03:16;;;;;;;17.65;14.32;;;;;;;;;;4938800;28;20555;-66
2022/05/19 02:05:45;;;;;;;20.25;14.18;;;;;;;;;;4925397;29;20059;-66
2022/05/19 02:08:15;;;;;;;19.23;14.07;;;;;;;;;;4924732;29;20130;-66
2022/05/19 02:10:44;;;;;;;22.75;16.15;;;;;;;;;;4941933;29;20526;-66
2022/05/19 02:13:11;;;;;;;22.42;15.18;;;;;;;;;;4925517;29;20070;-66
2022/05/19 02:15:42;;;;;;;23.95;15.95;;;;;;;;;;4927341;28;20181;-66
2022/05/19 02:18:10;;;;;;;23.83;14.20;;;;;;;;;;4935281;29;20060;-66
2022/05/19 02:20:38;;;;;;;20.98;16.02;;;;;;;;;;4941307;29;20111;-66
2022/05/19 02:23:06;;;;;;;20.35;16.08;;;;;;;;;;4929092;29;20122;-66
2022/05/19 02:25:35;;;;;;;22.95;16.88;;;;;;;;;;4918228;28;20059;-66
2022/05/19 02:28:04;;;;;;;24.08;16.38;;;;;;;;;;4940400;29;20066;-66
2022/05/19 02:30:33;;;;;;;22.77;16.00;;;;;;;;;;4941807;29;20085;-66
2022/05/19 02:33:00;;;;;;;26.65;16.58;;;;;;;;;;4924030;29;20063;-66
2022/05/19 02:35:30;;;;;;;19.92;15.82;;;;;;;;;;4938531;29;20585;-66
2022/05/19 02:37:57;;;;;;;21.70;15.55;;;;;;;;;;4940355;29;20141;-66
2022/05/19 02:40:27;;;;;;;26.67;19.02;;;;;;;;;;4940222;29;20062;-66
2022/05/19 02:42:54;;;;;;;20.27;16.08;;;;;;;;;;4942048;28;20475;-66
2022/05/19 02:45:22;;;;;;;26.77;16.60;;;;;;;;;;4944100;28;20054;-66
2022/05/19 02:47:49;;;;;;;25.88;18.23;;;;;;;;;;4929159;29;20098;-66
2022/05/19 02:50:17;;;;;;;27.30;18.25;;;;;;;;;;4938654;29;21245;-66
2022/05/19 02:52:47;;;;;;;27.50;18.90;;;;;;;;;;4927799;29;20114;-66
2022/05/19 02:55:14;;;;;;;23.77;18.80;;;;;;;;;;4944342;28;20055;-66
2022/05/19 02:57:42;;;;;;;25.98;18.58;;;;;;;;;;4939653;29;20536;-66
2022/05/19 03:00:12;;;;;;;27.40;19.83;;;;;;;;;;4944323;28;20062;-66
2022/05/19 03:02:39;;;;;;;30.25;20.63;;;;;;;;;;4942382;28;20402;-66
2022/05/19 03:05:07;;;;;;;32.80;20.90;;;;;;;;;;4921821;29;20055;-66
2022/05/19 03:07:34;;;;;;;36.85;22.30;;;;;;;;;;4941301;28;20090;-66
2022/05/19 03:10:03;;;;;;;28.58;21.77;;;;;;;;;;4939336;29;20059;-66
2022/05/19 03:12:30;;;;;;;31.70;20.50;;;;;;;;;;4926107;29;20063;-66
2022/05/19 03:14:57;;;;;;;32.50;21.23;;;;;;;;;;4943803;29;20074;-66
2022/05/19 03:17:25;;;;;;;33.22;22.80;;;;;;;;;;4942236;29;20616;-66
2022/05/19 03:19:53;;;;;;;30.50;21.33;;;;;;;;;;4920851;29;20078;-66
2022/05/19 03:22:21;;;;;;;32.85;21.88;;;;;;;;;;4939933;29;20129;-66
2022/05/19 03:24:48;;;;;;;37.75;22.42;;;;;;;;;;4921857;29;20055;-66
2022/05/19 03:27:16;;;;;;;34.28;23.38;;;;;;;;;;4942025;28;20050;-66
2022/05/19 03:29:45;;;;;;;31.73;22.30;;;;;;;;;;4921221;29;20055;-66
2022/05/19 03:32:12;;;;;;;29.05;22.75;;;;;;;;;;4920172;29;20415;-66
2022/05/19 03:34:40;;;;;;;34.75;22.23;;;;;;;;;;4938446;28;20506;-66
2022/05/19 03:37:07;;;;;;;35.00;24.40;;;;;;;;;;4938029;29;20055;-66
2022/05/19 03:39:35;;;;;;;30.85;23.17;;;;;;;;;;4941083;28;20060;-66
2022/05/19 03:42:03;;;;;;;37.72;23.50;;;;;;;;;;4923358;29;20059;-66
2022/05/19 03:44:31;;;;;;;28.83;22.35;;;;;;;;;;4941589;28;20047;-66
2022/05/19 03:46:58;;;;;;;35.92;23.27;;;;;;;;;;4942640;28;20043;-66
2022/05/19 03:49:25;;;;;;;30.20;23.23;;;;;;;;;;4940970;28;20468;-66
2022/05/19 03:51:53;;;;;;;32.30;23.50;;;;;;;;;;4938920;28;20062;-66
2022/05/19 03:54:20;;;;;;;35.25;24.02;;;;;;;;;;4942398;28;20105;-66
2022/05/19 03:56:47;;;;;;;31.33;23.05;;;;;;;;;;4938711;28;20051;-66
2022/05/19 03:59:14;;;;;;;40.95;24.88;;;;;;;;;;4941414;29;20410;-66
2022/05/19 04:01:43;;;;;;;36.40;24.05;;;;;;;;;;4939514;28;20130;-66
2022/05/19 04:04:11;;;;;;;37.67;24.48;;;;;;;;;;4938770;28;20169;-66
2022/05/19 04:06:38;;;;;;;37.42;24.50;;;;;;;;;;4939897;28;20396;-66
2022/05/19 04:09:06;;;;;;;34.63;25.30;;;;;;;;;;4926073;29;20059;-66
2022/05/19 04:11:33;;;;;;;32.40;23.35;;;;;;;;;;4926037;28;20063;-66
2022/05/19 04:14:00;;;;;;;39.50;24.77;;;;;;;;;;4934474;28;20122;-66
2022/05/19 04:16:28;;;;;;;37.42;25.38;;;;;;;;;;4937511;28;20495;-66
2022/05/19 04:18:57;;;;;;;34.35;24.67;;;;;;;;;;4940397;28;20101;-66
2022/05/19 04:21:24;;;;;;;36.35;25.50;;;;;;;;;;4925436;28;20142;-66
2022/05/19 04:23:51;;;;;;;34.28;24.45;;;;;;;;;;4940292;29;20051;-66
2022/05/19 04:26:18;;;;;;;32.15;23.35;;;;;;;;;;4938383;28;20870;-66
2022/05/19 04:28:45;;;;;;;35.90;24.67;;;;;;;;;;4917485;29;20495;-66
2022/05/19 04:31:13;;;;;;;40.85;26.10;;;;;;;;;;4940403;28;20458;-66
2022/05/19 04:33:40;;;;;;;31.25;23.50;;;;;;;;;;4925880;29;20063;-66
2022/05/19 04:36:08;;;;;;;34.50;24.25;;;;;;;;;;4919033;29;20099;-66
2022/05/19 04:38:36;;;;;;;33.75;25.35;;;;;;;;;;4926456;29;20415;-66
2022/05/19 04:41:05;;;;;;;37.13;25.63;;;;;;;;;;4926557;29;20067;-66
2022/05/19 04:43:32;;;;;;;36.90;25.55;;;;;;;;;;4948621;29;20122;-66
2022/05/19 04:45:59;;;;;;;40.10;26.98;;;;;;;;;;4947882;28;20110;-66
2022/05/19 04:48:27;;;;;;;35.17;25.58;;;;;;;;;;4945159;28;20098;-66
2022/05/19 04:50:55;;;;;;;34.65;24.60;;;;;;;;;;4931297;29;20114;-66
2022/05/19 04:53:23;;;;;;;39.13;24.73;;;;;;;;;;4948846;28;20061;-66
2022/05/19 04:55:50;;;;;;;34.95;24.33;;;;;;;;;;4925335;29;20499;-66
2022/05/19 04:58:18;;;;;;;36.50;24.40;;;;;;;;;;4945403;28;20043;-66
2022/05/19 05:00:45;;;;;;;27.48;21.85;;;;;;;;;;4946440;28;20067;-66
2022/05/19 05:03:13;;;;;;;31.95;23.45;;;;;;;;;;4939776;28;20571;-66
2022/05/19 05:05:40;;;;;;;32.63;23.48;;;;;;;;;;4945075;29;20050;-66
2022/05/19 05:08:07;;;;;;;36.65;25.13;;;;;;;;;;4945581;28;20044;-66
2022/05/19 05:10:36;;;;;;;41.30;25.35;;;;;;;;;;4946146;29;20071;-66
2022/05/19 05:13:07;;;;;;;36.72;25.52;;;;;;;;;;4946346;29;20074;-66
2022/05/19 05:15:34;;;;;;;41.95;27.92;;;;;;;;;;4932246;29;20058;-66
2022/05/19 05:18:02;;;;;;;42.33;29.50;;;;;;;;;;4931179;29;20066;-66
2022/05/19 05:20:29;;;;;;;46.63;30.73;;;;;;;;;;4944046;28;20135;-67
2022/05/19 05:22:56;;;;;;;48.08;31.27;;;;;;;;;;4946947;28;20047;-67
2022/05/19 05:25:24;;;;;;;58.58;38.15;;;;;;;;;;4945169;29;20074;-67
2022/05/19 05:27:52;;;;;;;51.75;35.03;;;;;;;;;;4924686;29;20075;-67
2022/05/19 05:30:20;;;;;;;58.80;38.92;;;;;;;;;;4928775;29;20134;-67
2022/05/19 05:32:47;;;;;;;53.08;36.53;;;;;;;;;;4944828;28;21372;-67
2022/05/19 05:35:14;;;;;;;55.40;37.00;;;;;;;;;;4920852;29;20055;-67
2022/05/19 05:37:41;;;;;;;73.75;44.05;;;;;;;;;;4921890;29;20055;-67
2022/05/19 05:40:10;;;;;;;70.70;42.22;;;;;;;;;;4940246;29;20771;-67
2022/05/19 05:42:38;;;;;;;62.08;38.90;;;;;;;;;;4940050;29;20467;-67
2022/05/19 05:45:07;;;;;;;59.85;36.75;;;;;;;;;;4940195;29;20059;-67
2022/05/19 05:47:35;;;;;;;69.80;36.72;;;;;;;;;;4941776;29;20180;-67
2022/05/19 05:50:02;;;;;;;86.47;41.85;;;;;;;;;;4941840;29;20078;-66
2022/05/19 05:52:29;;;;;;;73.40;33.70;;;;;;;;;;4924452;29;20059;-66
2022/05/19 05:54:59;;;;;;;73.28;28.67;;;;;;;;;;4924074;29;20094;-66
2022/05/19 05:57:29;;;;;;;68.65;24.05;;;;;;;;;;4939670;28;20051;-66
2022/05/19 05:59:57;;;;;;;86.13;31.17;;;;;;;;;;4946898;28;20044;-66
2022/05/19 06:02:25;;;;;;;162.98;43.58;;;;;;;;;;4951666;28;20522;-66
2022/05/19 06:04:53;;;;;;;142.15;43.08;;;;;;;;;;4949059;28;20075;-66
2022/05/19 06:07:20;;;;;;;93.78;32.72;;;;;;;;;;4943417;28;20052;-66
2022/05/19 06:09:47;;;;;;;163.07;46.90;;;;;;;;;;4941008;29;20063;-66
2022/05/19 06:12:14;;;;;;;70.03;25.00;;;;;;;;;;4943895;29;20051;-66
2022/05/19 06:14:42;;;;;;;83.70;29.08;;;;;;;;;;4947758;28;20059;-66
2022/05/19 06:17:09;;;;;;;68.18;23.63;;;;;;;;;;4947614;29;20059;-66
2022/05/19 06:19:38;;;;;;;76.53;28.80;;;;;;;;;;4951333;28;20162;-66
2022/05/19 06:22:06;;;;;;;75.32;27.23;;;;;;;;;;4944969;28;20129;-66
2022/05/19 06:24:33;;;;;;;63.03;25.70;;;;;;;;;;4950921;28;20396;-66
2022/05/19 06:27:00;;;;;;;62.60;24.35;;;;;;;;;;4957369;28;20063;-66
2022/05/19 06:29:28;;;;;;;64.03;25.25;;;;;;;;;;4950426;28;20405;-66
2022/05/19 06:31:55;;;;;;;65.40;25.15;;;;;;;;;;4958873;28;20067;-66
2022/05/19 06:34:22;;;;;;;54.45;21.67;;;;;;;;;;4928474;28;20118;-66
2022/05/19 06:36:51;;;;;;;89.13;30.50;;;;;;;;;;4926931;29;20063;-66
2022/05/19 06:39:19;;;;;;;72.30;25.20;;;;;;;;;;4948463;28;20546;-66
2022/05/19 06:42:01;;;;;;;34.85;13.48;;;;;;;;;;4945132;28;20052;-66
2022/05/19 06:44:29;;;;;;;74.70;21.30;;;;;;;;;;4945336;28;20051;-66
2022/05/19 06:46:57;;;;;;;45.97;16.33;;;;;;;;;;4943136;28;20053;-66
2022/05/19 06:49:24;;;;;;;55.13;18.50;;;;;;;;;;4934930;28;20103;-66
2022/05/19 06:51:53;;;;;;;37.67;15.35;;;;;;;;;;4943751;29;20047;-66
2022/05/19 06:54:21;;;;;;;44.45;15.98;;;;;;;;;;4944154;29;20118;-66
2022/05/19 06:56:48;;;;;;;66.57;23.02;;;;;;;;;;4944906;29;20055;-66
2022/05/19 06:59:16;;;;;;;43.10;17.67;;;;;;;;;;4942300;29;20522;-66
2022/05/19 07:01:44;;;;;;;30.10;14.38;;;;;;;;;;4928523;29;20139;-66
2022/05/19 07:04:11;;;;;;;40.83;15.52;;;;;;;;;;4945365;28;20047;-66
2022/05/19 07:06:39;;;;;;;37.75;15.95;;;;;;;;;;4925814;29;20051;-66
2022/05/19 07:09:07;;;;;;;39.95;16.13;;;;;;;;;;4920293;29;20072;-66
2022/05/19 07:11:35;;;;;;;53.70;19.30;;;;;;;;;;4944993;28;20107;-66
2022/05/19 07:14:03;;;;;;;55.55;22.23;;;;;;;;;;4942859;29;20059;-66
2022/05/19 07:16:31;;;;;;;56.72;22.50;;;;;;;;;;4927538;29;20051;-66
2022/05/19 07:21:42;;;;;;;77.07;27.20;;;;;;;;;;4940485;28;20051;-66
2022/05/19 07:24:15;;;;;;;94.97;35.40;;;;;;;;;;4938724;29;20557;-66
2022/05/19 07:26:43;;;;;;;68.75;29.45;;;;;;;;;;4938623;28;20521;-66
2022/05/19 07:29:10;;;;;;;88.15;30.33;;;;;;;;;;4937554;29;20063;-66
2022/05/19 07:31:37;;;;;;;79.88;29.17;;;;;;;;;;4938330;29;20048;-66
2022/05/19 07:34:05;;;;;;;64.97;28.23;;;;;;;;;;4921109;29;20151;-66
2022/05/19 07:36:32;;;;;;;59.45;23.98;;;;;;;;;;4938831;28;20067;-66
2022/05/19 07:39:00;;;;;;;63.03;27.73;;;;;;;;;;4937420;29;20090;-66
2022/05/19 07:41:29;;;;;;;62.80;27.40;;;;;;;;;;4937038;29;20439;-66
2022/05/19 07:43:57;;;;;;;52.78;24.75;;;;;;;;;;4939935;28;20062;-67
2022/05/19 07:46:25;;;;;;;61.83;28.20;;;;;;;;;;4940259;29;20057;-67
2022/05/19 07:48:54;;;;;;;48.45;23.02;;;;;;;;;;4945243;29;20134;-66
2022/05/19 07:51:21;;;;;;;57.17;25.90;;;;;;;;;;4937581;29;20051;-66
2022/05/19 07:53:49;;;;;;;61.10;27.98;;;;;;;;;;4922176;29;20126;-66
2022/05/19 07:56:16;;;;;;;55.95;25.30;;;;;;;;;;4935934;29;20039;-66
2022/05/19 07:58:46;;;;;;;48.55;24.05;;;;;;;;;;4936427;29;20396;-66
2022/05/19 08:01:13;;;;;;;52.00;25.77;;;;;;;;;;4935362;28;20432;-66
2022/05/19 08:03:41;;;;;;;57.28;27.95;;;;;;;;;;4935035;28;20403;-66
2022/05/19 08:06:09;;;;;;;52.53;26.98;;;;;;;;;;4937617;29;20110;-66
2022/05/19 08:08:36;;;;;;;56.72;29.00;;;;;;;;;;4937860;28;20043;-66
2022/05/19 08:11:03;;;;;;;54.15;28.02;;;;;;;;;;4937416;28;20056;-67
2022/05/19 08:16:16;;;;;;;67.38;27.55;;;;;;;;;;4919491;29;20047;-67
2022/05/19 08:18:44;;;;;;;61.72;26.35;;;;;;;;;;4922801;29;20463;-66
2022/05/19 08:21:12;;;;;;;67.90;28.85;;;;;;;;;;4923236;29;20083;-66
2022/05/19 08:23:40;;;;;;;60.90;25.83;;;;;;;;;;4920919;29;20825;-66
2022/05/19 08:26:08;;;;;;;75.32;30.50;;;;;;;;;;4922961;29;20056;-66
2022/05/19 08:28:36;;;;;;;51.33;23.15;;;;;;;;;;4923283;29;20055;-66
2022/05/19 08:31:04;;;;;;;71.82;28.17;;;;;;;;;;4925642;29;20428;-66
2022/05/19 08:33:33;;;;;;;48.63;23.52;;;;;;;;;;4922750;29;20098;-66
2022/05/19 08:36:02;;;;;;;52.45;27.35;;;;;;;;;;4926955;29;20051;-66
2022/05/19 08:38:29;;;;;;;57.75;25.70;;;;;;;;;;4922313;29;20168;-66
2022/05/19 08:40:58;;;;;;;50.88;23.58;;;;;;;;;;4924979;29;20111;-66
2022/05/19 08:43:31;;;;;;;45.75;22.15;;;;;;;;;;4924408;29;20063;-66
2022/05/19 08:46:00;;;;;;;42.55;21.27;;;;;;;;;;4919561;29;20135;-66
2022/05/19 08:48:28;;;;;;;61.38;27.65;;;;;;;;;;4925644;29;20495;-66
2022/05/19 08:50:57;;;;;;;45.28;23.80;;;;;;;;;;4926050;29;20063;-66
2022/05/19 08:53:26;;;;;;;44.13;22.15;;;;;;;;;;4923713;29;20063;-66
2022/05/19 08:55:54;;;;;;;35.17;20.02;;;;;;;;;;4926762;29;20063;-66
2022/05/19 08:58:35;;;;;;;41.65;21.73;;;;;;;;;;4926741;29;20130;-66
2022/05/19 09:01:04;;;;;;;44.30;23.23;;;;;;;;;;4930774;29;20052;-66
2022/05/19 09:03:34;;;;;;;53.35;24.15;;;;;;;;;;4925898;29;20074;-66
2022/05/19 09:06:20;;;;;;;35.35;19.88;;;;;;;;;;4923430;29;20056;-66
2022/05/19 09:09:05;;;;;;;37.45;18.58;;;;;;;;;;4925844;29;20497;-66
2022/05/19 09:11:39;;;;;;;35.40;18.15;;;;;;;;;;4909265;29;20052;-66
2022/05/19 09:14:06;;;;;;;;;;;;;;;;;;4945632;29;20051;-66
2022/05/19 09:16:34;;;;;;;41.25;20.60;;;;;;;;;;4931130;28;19930;-66
2022/05/19 09:19:04;;;;;;;38.58;18.52;;;;;;;;;;4949626;29;20383;-66
2022/05/19 09:21:33;;;;;;;40.42;19.00;;;;;;;;;;4928941;29;20106;-66
2022/05/19 09:24:00;;;;;;;35.65;17.92;;;;;;;;;;4924376;29;20063;-66
2022/05/19 09:26:34;;;;;;;38.80;19.13;;;;;;;;;;4943040;28;20047;-66
2022/05/19 09:29:10;;;;;;;36.72;19.08;;;;;;;;;;4943655;29;20440;-66
2022/05/19 09:31:39;;;;;;;37.42;20.70;;;;;;;;;;4943726;29;20047;-66
2022/05/19 09:34:07;;;;;;;35.35;17.85;;;;;;;;;;4944880;29;20133;-66
2022/05/19 09:36:41;;;;;;;31.38;16.98;;;;;;;;;;4925505;29;20063;-66
2022/05/19 09:39:10;;;;;;;34.72;17.52;;;;;;;;;;4928202;29;20051;-66
2022/05/19 09:41:40;;;;;;;31.63;16.98;;;;;;;;;;4948884;28;20418;-66
2022/05/19 09:44:12;;;;;;;29.75;16.98;;;;;;;;;;4942646;29;20054;-66
2022/05/19 09:46:41;;;;;;;33.10;16.52;;;;;;;;;;4949591;29;20106;-66
2022/05/19 09:49:17;;;;;;;38.92;18.38;;;;;;;;;;4946613;29;20043;-66
2022/05/19 09:51:49;;;;;;;36.47;16.23;;;;;;;;;;4943204;29;20405;-66
2022/05/19 09:54:16;;;;;;;35.03;16.90;;;;;;;;;;4943331;28;20396;-66
2022/05/19 09:56:45;;;;;;;31.13;15.93;;;;;;;;;;4925460;29;20059;-66
2022/05/19 09:59:14;;;;;;;33.97;16.88;;;;;;;;;;4945117;29;20114;-66
2022/05/19 10:01:45;;;;;;;37.65;17.55;;;;;;;;;;4942571;28;20050;-66
2022/05/19 10:04:15;;;;;;;27.38;15.65;;;;;;;;;;4943993;29;20141;-67
2022/05/19 10:06:51;;;;;;;32.17;16.48;;;;;;;;;;4942065;29;20508;-66
2022/05/19 10:09:20;;;;;;;31.40;16.90;;;;;;;;;;4938617;28;20054;-66
2022/05/19 10:11:49;;;;;;;26.15;15.27;;;;;;;;;;4942595;29;21045;-66
2022/05/19 10:14:18;;;;;;;28.15;16.23;;;;;;;;;;4942353;29;20469;-66
2022/05/19 10:16:52;;;;;;;24.55;15.45;;;;;;;;;;4946927;28;20085;-66
2022/05/19 10:19:25;;;;;;;31.85;15.82;;;;;;;;;;4943258;28;20043;-66
2022/05/19 10:22:10;;;;;;;24.02;15.00;;;;;;;;;;4944525;29;20486;-66
2022/05/19 10:24:46;;;;;;;25.10;15.15;;;;;;;;;;4942368;29;20052;-66
2022/05/19 10:33:02;;;;;;;19.65;12.77;;;;;;;;;;4944983;29;20534;-66
2022/05/19 10:35:32;;;;;;;22.73;12.68;;;;;;;;;;4940116;28;20051;-66
2022/05/19 10:38:11;;;;;;;20.67;12.70;;;;;;;;;;4944920;28;20118;-66
2022/05/19 10:40:44;;;;;;;21.83;14.18;;;;;;;;;;4950425;29;20080;-66
2022/05/19 10:43:18;;;;;;;22.02;12.80;;;;;;;;;;4948619;28;20051;-66
2022/05/19 10:45:48;;;;;;;19.48;13.15;;;;;;;;;;4945559;29;20062;-66
2022/05/19 10:48:30;;;;;;;21.75;13.57;;;;;;;;;;4932432;29;20062;-66
2022/05/19 10:50:59;;;;;;;23.20;13.75;;;;;;;;;;4945999;29;20071;-66
2022/05/19 10:53:33;;;;;;;20.38;14.00;;;;;;;;;;4926937;29;20063;-66
2022/05/19 10:56:18;;;;;;;19.40;13.35;;;;;;;;;;4941243;29;20054;-66
2022/05/19 10:58:56;;;;;;;17.90;14.60;;;;;;;;;;4940799;29;20066;-66
2022/05/19 11:01:34;;;;;;;18.38;13.90;;;;;;;;;;4938780;29;20384;-66
2022/05/19 11:04:04;;;;;;;20.08;13.57;;;;;;;;;;4919463;29;20070;-66
2022/05/19 11:06:40;;;;;;;20.25;13.48;;;;;;;;;;4942136;28;20150;-67
2022/05/19 11:09:10;;;;;;;19.73;13.13;;;;;;;;;;4937320;29;20070;-67
2022/05/19 11:11:44;;;;;;;16.00;12.25;;;;;;;;;;4943590;28;20059;-67
2022/05/19 11:14:17;;;;;;;20.10;13.63;;;;;;;;;;4936811;28;20062;-67
2022/05/19 11:16:46;;;;;;;17.77;13.75;;;;;;;;;;4938445;28;20066;-67
2022/05/19 11:19:16;;;;;;;15.55;12.90;;;;;;;;;;4942520;29;20061;-67
2022/05/19 11:21:46;;;;;;;12.98;11.50;;;;;;;;;;4938917;29;20170;-67
2022/05/19 11:24:21;;;;;;;15.77;11.80;;;;;;;;;;4922064;29;20506;-67
2022/05/19 11:26:49;;;;;;;18.27;12.52;;;;;;;;;;4938303;29;20051;-67
2022/05/19 11:29:24;;;;;;;19.55;12.82;;;;;;;;;;4945705;29;20383;-67
2022/05/19 11:31:56;;;;;;;16.00;11.85;;;;;;;;;;4938296;29;20495;-67
2022/05/19 11:34:27;;;;;;;16.92;11.60;;;;;;;;;;4940418;29;20055;-67
2022/05/19 11:36:56;;;;;;;16.25;13.65;;;;;;;;;;4946136;29;20474;-67
2022/05/19 11:39:28;;;;;;;17.35;12.63;;;;;;;;;;4939618;29;20047;-67
2022/05/19 11:41:58;;;;;;;17.40;13.65;;;;;;;;;;4923710;28;20063;-67
2022/05/19 11:44:29;;;;;;;13.60;10.23;;;;;;;;;;4922488;29;20063;-67
2022/05/19 11:47:00;;;;;;;11.55;9.27;;;;;;;;;;4937286;29;20060;-67
2022/05/19 11:55:17;;;;;;;48.92;20.70;;;;;;;;;;4938583;29;20561;-66
2022/05/19 11:57:49;;;;;;;56.72;26.90;;;;;;;;;;4923772;29;20086;-65
2022/05/19 12:00:22;;;;;;;348.38;85.07;;;;;;;;;;4940518;29;20066;-65
2022/05/19 12:02:49;;;;;;;;;;;;;;;;;;4947539;28;20051;-66
2022/05/19 12:05:20;;;;;;;44.78;26.13;;;;;;;;;;4946727;28;19926;-66
2022/05/19 12:07:51;;;;;;;33.53;23.75;;;;;;;;;;4942945;28;20366;-66
2022/05/19 12:10:21;;;;;;;40.05;28.90;;;;;;;;;;4939954;29;20411;-66
2022/05/19 12:12:53;;;;;;;50.85;31.60;;;;;;;;;;4941825;29;20055;-66
2022/05/19 12:15:23;;;;;;;43.53;27.77;;;;;;;;;;4946924;29;20114;-66
2022/05/19 12:17:56;;;;;;;48.53;31.27;;;;;;;;;;4951750;28;20051;-65
2022/05/19 12:20:34;;;;;;;68.95;32.38;;;;;;;;;;4947170;28;20050;-65
2022/05/19 12:23:16;;;;;;;68.70;28.92;;;;;;;;;;4926610;29;20055;-66
2022/05/19 12:25:44;;;;;;;73.25;39.03;;;;;;;;;;4923233;29;20110;-65
2022/05/19 12:28:28;;;;;;;95.60;42.67;;;;;;;;;;4943114;29;20102;-66
2022/05/19 12:33:51;;;;;;;83.43;38.20;;;;;;;;;;4945694;29;20134;-67
2022/05/19 12:36:25;;;;;;;67.50;32.28;;;;;;;;;;4943926;28;20063;-67
2022/05/19 12:38:52;;;;;;;380.30;85.65;;;;;;;;;;4942430;28;20065;-67
2022/05/19 12:41:36;;;;;;;383.70;89.93;;;;;;;;;;4937405;29;20142;-67
2022/05/19 12:44:18;;;;;;;1369.28;211.63;;;;;;;;;;4939994;29;20139;-67
2022/05/19 12:46:47;;;;;;;92.80;39.38;;;;;;;;;;4939482;29;20056;-67
2022/05/19 12:49:19;;;;;;;62.88;34.95;;;;;;;;;;4944191;29;20063;-67
2022/05/19 12:51:51;;;;;;;162.95;45.35;;;;;;;;;;4937800;29;20070;-67
2022/05/19 12:54:19;;;;;;;40.45;22.52;;;;;;;;;;4925714;29;20410;-67
2022/05/19 12:57:04;;;;;;;78.60;35.17;;;;;;;;;;4939365;29;20059;-67
2022/05/19 12:59:34;;;;;;;138.55;46.47;;;;;;;;;;4931919;29;20063;-67
2022/05/19 13:02:05;;;;;;;103.03;40.80;;;;;;;;;;4944111;28;20059;-67
2022/05/19 13:04:36;;;;;;;34.63;23.60;;;;;;;;;;4947991;29;20106;-67
2022/05/19 13:07:07;;;;;;;31.15;20.70;;;;;;;;;;4951991;28;20134;-67
2022/05/19 13:09:35;;;;;;;38.92;22.45;;;;;;;;;;4925772;29;20209;-67
2022/05/19 13:12:04;;;;;;;61.15;28.88;;;;;;;;;;4929619;29;20629;-67
2022/05/19 13:14:34;;;;;;;63.70;30.42;;;;;;;;;;4947841;29;20083;-67
2022/05/19 13:17:13;;;;;;;94.22;43.53;;;;;;;;;;4930769;29;20048;-67
2022/05/19 13:19:42;;;;;;;84.28;34.25;;;;;;;;;;4948060;28;20055;-67
2022/05/19 13:22:10;;;;;;;65.75;33.20;;;;;;;;;;4948628;29;20047;-67
2022/05/19 13:24:40;;;;;;;173.63;55.60;;;;;;;;;;4946245;29;20051;-66
2022/05/19 13:32:40;;;;;;;1106.20;203.95;;;;;;;;;;4948229;28;20505;-67
2022/05/19 13:35:08;;;;;;;914.88;186.45;;;;;;;;;;4925652;29;20133;-67
2022/05/19 13:37:37;;;;;;;1247.57;213.88;;;;;;;;;;4930711;29;20043;-67
2022/05/19 13:40:16;;;;;;;386.85;114.45;;;;;;;;;;4930962;29;20054;-67
2022/05/19 13:42:48;;;;;;;871.45;150.48;;;;;;;;;;4928068;29;20062;-67
2022/05/19 13:45:20;;;;;;;600.63;106.63;;;;;;;;;;4948764;29;20213;-67
2022/05/19 13:47:49;;;;;;;336.38;76.45;;;;;;;;;;4942993;29;20054;-67
2022/05/19 13:50:18;;;;;;;559.95;124.13;;;;;;;;;;4945052;29;20118;-67
2022/05/19 13:52:50;;;;;;;860.33;172.27;;;;;;;;;;4942232;29;20059;-67
2022/05/19 13:55:25;;;;;;;164.75;58.33;;;;;;;;;;4931186;29;20051;-67
2022/05/19 13:57:54;;;;;;;98.57;41.72;;;;;;;;;;4948313;28;20047;-67
2022/05/19 14:00:21;;;;;;;119.78;48.20;;;;;;;;;;4946063;28;20059;-67
2022/05/19 14:02:51;;;;;;;148.60;57.00;;;;;;;;;;4939070;28;20055;-67
2022/05/19 14:05:21;;;;;;;275.45;75.57;;;;;;;;;;4945420;29;20676;-67
2022/05/19 14:07:49;;;;;;;79.78;43.13;;;;;;;;;;4942567;29;20054;-67
2022/05/19 14:10:18;;;;;;;1202.65;219.95;;;;;;;;;;4937655;28;20709;-67
2022/05/19 14:12:47;;;;;;;476.17;109.18;;;;;;;;;;4946218;28;20059;-67
2022/05/19 14:15:21;;;;;;;430.42;97.75;;;;;;;;;;4924800;29;20462;-67
2022/05/19 14:17:53;;;;;;;62.15;33.45;;;;;;;;;;4945840;28;20078;-68
2022/05/19 14:20:21;;;;;;;162.05;54.53;;;;;;;;;;4930086;29;20051;-68
2022/05/19 14:22:49;;;;;;;882.20;159.02;;;;;;;;;;4948420;29;20047;-68
2022/05/19 14:25:20;;;;;;;331.35;69.68;;;;;;;;;;4950553;29;20055;-68
2022/05/19 14:27:47;;;;;;;1081.30;188.02;;;;;;;;;;4949893;29;20105;-68
2022/05/19 14:30:17;;;;;;;429.77;89.15;;;;;;;;;;4950315;28;20039;-68
2022/05/19 14:32:47;;;;;;;126.15;43.10;;;;;;;;;;4945154;29;20054;-68
2022/05/19 14:35:21;;;;;;;419.70;98.43;;;;;;;;;;4950609;28;20055;-68
2022/05/19 14:37:53;;;;;;;776.50;130.68;;;;;;;;;;4925311;29;20062;-68
2022/05/19 14:43:09;;;;;;;291.75;75.63;;;;;;;;;;4938933;29;20051;-68
2022/05/19 14:45:38;;;;;;;86.88;41.15;;;;;;;;;;4945638;29;20062;-68
2022/05/19 14:48:08;;;;;;;291.52;72.63;;;;;;;;;;4943448;28;20103;-68
2022/05/19 14:50:37;;;;;;;140.57;41.42;;;;;;;;;;4927686;29;20066;-68
2022/05/19 14:53:05;;;;;;;61.53;34.72;;;;;;;;;;4945297;28;20054;-68
2022/05/19 14:55:36;;;;;;;32.92;23.20;;;;;;;;;;4943175;29;20058;-68
2022/05/19 14:58:05;;;;;;;67.75;30.63;;;;;;;;;;4926304;29;20044;-68